createdAt,value
2022-10-30T00:01:15.423Z,19.20
2022-10-30T00:03:44.081Z,19.30
2022-10-30T00:06:12.469Z,19.20
2022-10-30T00:08:40.944Z,19.20
2022-10-30T00:11:10.310Z,19.20
2022-10-30T00:13:43.540Z,19.10
2022-10-30T00:16:22.410Z,19.10
2022-10-30T00:18:50.863Z,19.10
2022-10-30T00:21:20.712Z,19.10
2022-10-30T00:23:50.767Z,19.00
2022-10-30T00:26:24.904Z,19.10
2022-10-30T00:28:54.874Z,19.10
2022-10-30T00:31:26.373Z,19.10
2022-10-30T00:33:56.011Z,19.10
2022-10-30T00:36:26.249Z,19.10
2022-10-30T00:38:54.920Z,19.10
2022-10-30T00:41:25.194Z,19.00
2022-10-30T00:43:55.236Z,19.00
2022-10-30T00:46:30.817Z,19.10
2022-10-30T00:49:02.396Z,19.10
2022-10-30T00:51:37.026Z,19.00
2022-10-30T00:54:09.134Z,19.10
2022-10-30T00:56:40.591Z,19.10
2022-10-30T00:59:12.068Z,19.00
2022-10-30T01:01:45.833Z,19.20
2022-10-30T01:04:18.066Z,19.10
2022-10-30T01:06:54.814Z,19.10
2022-10-30T01:09:24.176Z,19.00
2022-10-30T01:11:52.591Z,19.00
2022-10-30T01:14:22.660Z,19.10
2022-10-30T01:17:34.082Z,19.10
2022-10-30T01:20:13.012Z,19.10
2022-10-30T01:22:51.627Z,19.20
2022-10-30T01:25:44.452Z,19.10
2022-10-30T01:28:29.399Z,19.10
2022-10-30T01:31:09.996Z,19.10
2022-10-30T01:33:54.141Z,19.10
2022-10-30T01:36:27.009Z,19.10
2022-10-30T01:39:00.344Z,19.10
2022-10-30T01:41:29.082Z,19.10
2022-10-30T01:44:02.963Z,19.10
2022-10-30T01:46:52.538Z,19.00
2022-10-30T01:49:37.777Z,19.10
2022-10-30T01:52:14.803Z,19.00
2022-10-30T01:54:50.735Z,19.00
2022-10-30T01:57:31.705Z,19.00
2022-10-30T02:00:06.375Z,19.00
2022-10-30T02:02:35.231Z,19.00
2022-10-30T02:05:08.460Z,18.90
2022-10-30T02:07:37.727Z,19.00
2022-10-30T02:10:06.936Z,19.00
2022-10-30T02:12:36.695Z,18.90
2022-10-30T02:15:05.659Z,18.90
2022-10-30T02:17:34.649Z,18.90
2022-10-30T02:20:05.041Z,18.90
2022-10-30T02:22:34.942Z,18.90
2022-10-30T02:25:03.292Z,18.90
2022-10-30T02:27:31.764Z,18.90
2022-10-30T02:30:00.725Z,18.90
2022-10-30T02:32:29.149Z,18.90
2022-10-30T02:34:57.633Z,18.90
2022-10-30T02:37:26.051Z,18.90
2022-10-30T02:39:55.737Z,18.90
2022-10-30T02:42:24.325Z,18.90
2022-10-30T02:44:53.019Z,18.80
2022-10-30T02:47:24.976Z,18.90
2022-10-30T02:49:53.638Z,18.80
2022-10-30T02:52:26.306Z,18.90
2022-10-30T02:54:56.006Z,18.90
2022-10-30T02:57:24.712Z,18.90
2022-10-30T02:59:53.099Z,18.90
2022-10-30T03:02:21.660Z,18.90
2022-10-30T03:04:49.965Z,18.80
2022-10-30T03:07:20.161Z,18.80
2022-10-30T03:09:48.687Z,18.90
2022-10-30T03:12:18.636Z,18.90
2022-10-30T03:14:47.778Z,18.90
2022-10-30T03:17:16.296Z,18.90
2022-10-30T03:19:44.605Z,18.90
2022-10-30T03:22:15.933Z,18.90
2022-10-30T03:24:44.584Z,18.80
2022-10-30T03:27:13.391Z,18.80
2022-10-30T03:29:42.970Z,18.90
2022-10-30T03:32:12.106Z,18.80
2022-10-30T03:34:40.392Z,18.90
2022-10-30T03:37:08.694Z,18.90
2022-10-30T03:39:36.991Z,18.90
2022-10-30T03:42:05.867Z,18.80
2022-10-30T03:44:34.373Z,18.80
2022-10-30T03:47:04.062Z,18.80
2022-10-30T03:49:32.667Z,18.70
2022-10-30T03:52:01.903Z,18.80
2022-10-30T03:54:30.283Z,18.80
2022-10-30T03:56:58.628Z,18.80
2022-10-30T03:59:29.746Z,18.80
2022-10-30T04:01:58.309Z,18.70
2022-10-30T04:04:31.290Z,18.80
2022-10-30T04:06:59.584Z,18.80
2022-10-30T04:09:28.298Z,18.80
2022-10-30T04:11:56.596Z,18.80
2022-10-30T04:14:24.969Z,18.80
2022-10-30T04:16:53.587Z,18.80
2022-10-30T04:19:21.902Z,18.80
2022-10-30T04:21:51.841Z,18.70
2022-10-30T04:24:20.249Z,18.80
2022-10-30T04:26:48.766Z,18.80
2022-10-30T04:29:17.078Z,18.70
2022-10-30T04:31:45.483Z,18.70
2022-10-30T04:34:14.051Z,18.70
2022-10-30T04:36:42.516Z,18.80
2022-10-30T04:39:12.491Z,18.70
2022-10-30T04:41:41.029Z,18.70
2022-10-30T04:44:09.706Z,18.70
2022-10-30T04:46:37.998Z,18.60
2022-10-30T04:49:06.357Z,18.60
2022-10-30T04:51:35.397Z,18.60
2022-10-30T04:54:04.037Z,18.60
2022-10-30T04:56:34.104Z,18.60
2022-10-30T04:59:02.697Z,18.60
2022-10-30T05:01:31.219Z,18.50
2022-10-30T05:03:59.707Z,18.60
2022-10-30T05:06:30.375Z,18.60
2022-10-30T05:08:59.034Z,18.60
2022-10-30T05:11:28.164Z,18.60
2022-10-30T05:14:00.984Z,18.60
2022-10-30T05:16:29.321Z,18.60
2022-10-30T05:18:57.807Z,18.60
2022-10-30T05:21:26.070Z,18.60
2022-10-30T05:23:54.474Z,18.50
2022-10-30T05:26:23.520Z,18.60
2022-10-30T05:28:52.179Z,18.50
2022-10-30T05:31:22.167Z,18.50
2022-10-30T05:33:50.626Z,18.60
2022-10-30T05:36:19.000Z,18.50
2022-10-30T05:38:47.761Z,18.70
2022-10-30T05:41:16.313Z,18.60
2022-10-30T05:43:44.833Z,18.60
2022-10-30T05:46:13.257Z,18.70
2022-10-30T05:48:45.635Z,18.60
2022-10-30T05:51:14.175Z,18.60
2022-10-30T05:53:42.779Z,18.70
2022-10-30T05:56:11.112Z,18.60
2022-10-30T05:58:39.632Z,18.60
2022-10-30T06:01:08.630Z,18.60
2022-10-30T06:03:37.080Z,18.70
2022-10-30T06:06:07.375Z,18.70
2022-10-30T06:08:35.913Z,18.70
2022-10-30T06:11:04.295Z,18.70
2022-10-30T06:13:32.776Z,18.70
2022-10-30T06:16:01.309Z,18.80
2022-10-30T06:18:29.801Z,18.80
2022-10-30T06:20:59.868Z,18.80
2022-10-30T06:23:32.027Z,18.70
2022-10-30T06:26:00.536Z,18.80
2022-10-30T06:28:30.253Z,18.90
2022-10-30T06:31:01.331Z,18.80
2022-10-30T06:33:29.807Z,18.90
2022-10-30T06:35:58.309Z,18.80
2022-10-30T06:38:26.968Z,18.90
2022-10-30T06:40:56.955Z,18.90
2022-10-30T06:43:31.166Z,18.90
2022-10-30T06:46:02.317Z,19.00
2022-10-30T06:48:33.416Z,18.90
2022-10-30T06:51:03.342Z,18.80
2022-10-30T06:53:32.091Z,18.90
2022-10-30T06:56:03.067Z,18.90
2022-10-30T06:58:32.703Z,19.00
2022-10-30T07:01:01.822Z,19.00
2022-10-30T07:03:30.171Z,19.00
2022-10-30T07:05:58.889Z,19.00
2022-10-30T07:08:27.282Z,19.00
2022-10-30T07:10:57.920Z,19.00
2022-10-30T07:13:28.013Z,19.00
2022-10-30T07:15:59.633Z,19.10
2022-10-30T07:18:28.190Z,19.10
2022-10-30T07:20:59.987Z,19.10
2022-10-30T07:23:28.338Z,19.20
2022-10-30T07:26:03.553Z,19.20
2022-10-30T07:28:34.367Z,19.20
2022-10-30T07:31:07.745Z,19.20
2022-10-30T07:33:39.059Z,19.20
2022-10-30T07:36:08.594Z,19.20
2022-10-30T07:38:39.048Z,19.30
2022-10-30T07:41:07.776Z,19.30
2022-10-30T07:43:37.511Z,19.40
2022-10-30T07:46:09.474Z,19.40
2022-10-30T07:48:40.674Z,19.40
2022-10-30T07:51:09.854Z,19.50
2022-10-30T07:53:38.925Z,19.50
2022-10-30T07:56:11.292Z,19.60
2022-10-30T07:58:45.639Z,19.70
2022-10-30T08:01:16.995Z,19.80
2022-10-30T08:03:46.718Z,19.80
2022-10-30T08:06:15.596Z,19.90
2022-10-30T08:08:44.184Z,19.90
2022-10-30T08:11:12.541Z,19.90
2022-10-30T08:13:44.828Z,20.00
2022-10-30T08:16:14.168Z,20.00
2022-10-30T08:18:43.187Z,20.00
2022-10-30T08:21:12.094Z,20.10
2022-10-30T08:23:40.300Z,20.10
2022-10-30T08:26:11.527Z,20.10
2022-10-30T08:28:40.021Z,20.10
2022-10-30T08:31:09.992Z,20.10
2022-10-30T08:33:38.498Z,20.10
2022-10-30T08:36:08.934Z,20.20
2022-10-30T08:38:37.396Z,20.30
2022-10-30T08:41:05.797Z,20.30
2022-10-30T08:43:34.514Z,20.40
2022-10-30T08:46:03.282Z,20.40
2022-10-30T08:48:33.308Z,20.60
2022-10-30T08:51:03.025Z,20.80
2022-10-30T08:53:34.667Z,21.00
2022-10-30T08:56:03.017Z,21.10
2022-10-30T08:58:31.560Z,21.30
2022-10-30T09:01:02.384Z,21.30
2022-10-30T09:03:32.421Z,21.40
2022-10-30T09:06:02.107Z,21.40
2022-10-30T09:08:30.563Z,21.40
2022-10-30T09:11:03.119Z,21.50
2022-10-30T09:13:32.070Z,21.40
2022-10-30T09:16:04.238Z,21.40
2022-10-30T09:18:35.723Z,21.40
2022-10-30T09:21:05.678Z,21.40
2022-10-30T09:23:34.805Z,21.40
2022-10-30T09:26:03.049Z,21.50
2022-10-30T09:28:31.594Z,21.80
2022-10-30T09:31:02.069Z,21.90
2022-10-30T09:33:30.486Z,22.10
2022-10-30T09:35:58.892Z,22.30
2022-10-30T09:38:29.580Z,22.50
2022-10-30T09:41:18.121Z,22.50
2022-10-30T09:44:02.045Z,22.70
2022-10-30T09:46:46.714Z,22.80
2022-10-30T09:49:44.814Z,23.00
2022-10-30T09:52:31.914Z,23.00
2022-10-30T09:55:26.399Z,23.20
2022-10-30T09:58:03.749Z,23.30
2022-10-30T10:00:38.859Z,23.40
2022-10-30T10:03:28.415Z,23.40
2022-10-30T10:06:01.375Z,23.50
2022-10-30T10:08:36.119Z,23.60
2022-10-30T10:11:14.817Z,23.80
2022-10-30T10:13:54.267Z,23.80
2022-10-30T10:16:28.104Z,23.90
2022-10-30T10:19:04.376Z,24.00
2022-10-30T10:21:37.165Z,24.10
2022-10-30T10:24:19.986Z,24.20
2022-10-30T10:26:55.241Z,24.30
2022-10-30T10:29:34.774Z,24.30
2022-10-30T10:32:23.953Z,24.40
2022-10-30T10:35:08.412Z,24.40
2022-10-30T10:37:45.182Z,24.50
2022-10-30T10:40:29.845Z,24.60
2022-10-30T10:43:11.313Z,24.60
2022-10-30T10:45:49.083Z,24.80
2022-10-30T10:48:45.627Z,24.70
2022-10-30T10:51:17.192Z,24.80
2022-10-30T10:53:49.722Z,24.90
2022-10-30T10:56:19.883Z,24.90
2022-10-30T10:58:53.052Z,25.00
2022-10-30T11:01:29.023Z,25.00
2022-10-30T11:04:01.182Z,24.90
2022-10-30T11:06:33.645Z,25.00
2022-10-30T11:09:16.630Z,24.90
2022-10-30T11:11:46.027Z,25.00
2022-10-30T11:14:18.182Z,25.00
2022-10-30T11:16:56.163Z,25.00
2022-10-30T11:19:25.846Z,24.90
2022-10-30T11:21:56.324Z,25.00
2022-10-30T11:24:32.742Z,25.00
2022-10-30T11:27:18.657Z,25.00
2022-10-30T11:29:55.705Z,25.00
2022-10-30T11:32:29.153Z,25.00
2022-10-30T11:35:12.345Z,25.00
2022-10-30T11:37:41.937Z,25.00
2022-10-30T11:40:20.521Z,25.10
2022-10-30T11:42:50.878Z,25.20
2022-10-30T11:45:27.379Z,25.10
2022-10-30T11:48:01.153Z,25.20
2022-10-30T11:50:36.763Z,25.20
2022-10-30T11:53:12.911Z,25.20
2022-10-30T11:55:47.152Z,25.30
2022-10-30T11:58:27.179Z,25.30
2022-10-30T12:01:06.244Z,25.30
2022-10-30T12:03:37.769Z,25.40
2022-10-30T12:06:11.931Z,25.50
2022-10-30T12:08:43.532Z,25.40
2022-10-30T12:11:12.306Z,25.50
2022-10-30T12:13:42.284Z,25.40
2022-10-30T12:16:19.990Z,25.60
2022-10-30T12:19:02.143Z,25.50
2022-10-30T12:21:36.226Z,25.50
2022-10-30T12:24:20.359Z,25.60
2022-10-30T12:26:52.519Z,25.50
2022-10-30T12:29:36.538Z,25.50
2022-10-30T12:32:19.146Z,25.60
2022-10-30T12:34:54.605Z,25.60
2022-10-30T12:37:31.009Z,25.60
2022-10-30T12:40:03.812Z,25.60
2022-10-30T12:42:39.060Z,25.60
2022-10-30T12:45:14.606Z,25.70
2022-10-30T12:47:49.592Z,25.70
2022-10-30T12:50:23.694Z,25.60
2022-10-30T12:53:01.753Z,25.60
2022-10-30T12:55:35.307Z,25.60
2022-10-30T12:58:11.989Z,25.70
2022-10-30T13:00:46.966Z,25.70
2022-10-30T13:03:25.023Z,25.80
2022-10-30T13:05:58.040Z,25.70
2022-10-30T13:08:31.815Z,25.80
2022-10-30T13:11:06.236Z,25.80
2022-10-30T13:13:38.054Z,25.80
2022-10-30T13:16:13.936Z,25.80
2022-10-30T13:18:43.849Z,25.80
2022-10-30T13:21:28.554Z,25.80
2022-10-30T13:24:04.263Z,25.80
2022-10-30T13:26:39.850Z,25.80
2022-10-30T13:29:19.830Z,25.80
2022-10-30T13:31:59.987Z,25.80
2022-10-30T13:34:39.945Z,25.90
2022-10-30T13:37:14.129Z,25.90
2022-10-30T13:39:48.384Z,25.90
2022-10-30T13:42:28.434Z,25.90
2022-10-30T13:45:07.722Z,25.80
2022-10-30T13:47:48.870Z,25.90
2022-10-30T13:50:44.049Z,25.90
2022-10-30T13:53:20.379Z,25.80
2022-10-30T13:55:50.767Z,25.80
2022-10-30T13:58:24.725Z,25.80
2022-10-30T14:01:01.536Z,25.80
2022-10-30T14:03:46.784Z,25.70
2022-10-30T14:06:29.381Z,25.70
2022-10-30T14:09:07.376Z,25.70
2022-10-30T14:11:37.784Z,25.70
2022-10-30T14:14:28.088Z,25.60
2022-10-30T14:17:14.712Z,25.60
2022-10-30T14:20:19.638Z,25.40
2022-10-30T14:23:08.933Z,25.40
2022-10-30T14:25:38.123Z,25.30
2022-10-30T14:28:15.086Z,25.30
2022-10-30T14:30:46.501Z,25.10
2022-10-30T14:33:52.771Z,25.10
2022-10-30T14:36:24.516Z,25.00
2022-10-30T14:39:10.729Z,25.00
2022-10-30T14:41:49.194Z,24.90
2022-10-30T14:44:55.892Z,24.90
2022-10-30T14:47:44.238Z,24.80
2022-10-30T14:50:24.983Z,24.70
2022-10-30T14:53:10.890Z,24.60
2022-10-30T14:55:56.943Z,24.60
2022-10-30T14:58:28.148Z,24.50
2022-10-30T15:01:27.032Z,24.50
2022-10-30T15:04:12.626Z,24.40
2022-10-30T15:06:53.932Z,24.40
2022-10-30T15:09:33.773Z,24.40
2022-10-30T15:12:23.611Z,24.20
2022-10-30T15:14:56.212Z,24.20
2022-10-30T15:17:30.096Z,24.00
2022-10-30T15:20:01.445Z,24.00
2022-10-30T15:22:31.589Z,23.90
2022-10-30T15:25:00.080Z,23.90
2022-10-30T15:27:32.086Z,23.80
2022-10-30T15:30:02.671Z,23.70
2022-10-30T15:32:31.052Z,23.60
2022-10-30T15:35:01.958Z,23.70
2022-10-30T15:37:30.619Z,23.60
2022-10-30T15:40:17.244Z,23.50
2022-10-30T15:42:48.460Z,23.40
2022-10-30T15:45:19.905Z,23.40
2022-10-30T15:47:50.011Z,23.30
2022-10-30T15:50:20.168Z,23.30
2022-10-30T15:52:49.106Z,23.20
2022-10-30T15:55:21.624Z,23.10
2022-10-30T15:58:08.640Z,23.00
2022-10-30T16:00:39.649Z,22.90
2022-10-30T16:03:17.583Z,22.90
2022-10-30T16:05:46.216Z,22.80
2022-10-30T16:08:20.520Z,22.80
2022-10-30T16:10:50.545Z,22.80
2022-10-30T16:13:26.203Z,22.70
2022-10-30T16:15:54.927Z,22.60
2022-10-30T16:18:26.528Z,22.60
2022-10-30T16:20:57.512Z,22.60
2022-10-30T16:23:25.930Z,22.50
2022-10-30T16:25:59.449Z,22.50
2022-10-30T16:28:32.091Z,22.40
2022-10-30T16:31:03.320Z,22.40
2022-10-30T16:33:34.921Z,22.40
2022-10-30T16:36:05.412Z,22.40
2022-10-30T16:38:37.701Z,22.30
2022-10-30T16:41:13.567Z,22.20
2022-10-30T16:44:03.964Z,22.20
2022-10-30T16:46:40.667Z,22.10
2022-10-30T16:49:14.673Z,22.10
2022-10-30T16:51:44.443Z,22.00
2022-10-30T16:54:24.850Z,22.00
2022-10-30T16:56:56.941Z,21.90
2022-10-30T16:59:32.249Z,21.90
2022-10-30T17:02:06.019Z,21.90
2022-10-30T17:04:36.302Z,21.90
2022-10-30T17:07:18.698Z,21.80
2022-10-30T17:09:49.248Z,21.80
2022-10-30T17:12:21.787Z,21.70
2022-10-30T17:14:54.180Z,21.60
2022-10-30T17:17:31.944Z,21.60
2022-10-30T17:20:02.843Z,21.50
2022-10-30T17:22:31.882Z,21.50
2022-10-30T17:25:01.662Z,21.50
2022-10-30T17:27:43.556Z,21.40
2022-10-30T17:30:43.469Z,21.40
2022-10-30T17:33:43.124Z,21.40
2022-10-30T17:36:11.622Z,21.30
2022-10-30T17:38:40.869Z,21.20
2022-10-30T17:41:16.743Z,21.20
2022-10-30T17:43:52.032Z,21.20
2022-10-30T17:46:21.723Z,21.10
2022-10-30T17:48:50.350Z,21.10
2022-10-30T17:51:19.988Z,21.00
2022-10-30T17:53:49.350Z,21.00
2022-10-30T17:56:21.349Z,21.00
2022-10-30T17:58:51.062Z,21.00
2022-10-30T18:01:25.478Z,20.90
2022-10-30T18:03:57.377Z,20.90
2022-10-30T18:06:29.089Z,20.90
2022-10-30T18:08:57.626Z,20.80
2022-10-30T18:11:27.168Z,20.70
2022-10-30T18:13:57.970Z,20.70
2022-10-30T18:16:28.117Z,20.70
2022-10-30T18:18:56.621Z,20.50
2022-10-30T18:21:27.432Z,20.50
2022-10-30T18:23:56.216Z,20.50
2022-10-30T18:26:26.403Z,20.50
2022-10-30T18:28:55.299Z,20.50
2022-10-30T18:31:25.065Z,20.40
2022-10-30T18:33:55.275Z,20.30
2022-10-30T18:36:25.098Z,20.30
2022-10-30T18:38:54.529Z,20.30
2022-10-30T18:41:26.693Z,20.30
2022-10-30T18:43:59.233Z,20.30
2022-10-30T18:46:27.838Z,20.30
2022-10-30T18:48:57.600Z,20.20
2022-10-30T18:51:27.577Z,20.10
2022-10-30T18:53:57.346Z,20.10
2022-10-30T18:56:27.293Z,20.00
2022-10-30T18:59:00.624Z,20.00
2022-10-30T19:01:32.238Z,20.00
2022-10-30T19:04:04.062Z,20.00
2022-10-30T19:06:34.450Z,20.00
2022-10-30T19:09:03.314Z,20.00
2022-10-30T19:11:32.650Z,20.00
2022-10-30T19:14:01.431Z,19.90
2022-10-30T19:16:30.350Z,19.90
2022-10-30T19:18:58.650Z,19.90
2022-10-30T19:21:30.906Z,19.90
2022-10-30T19:24:02.239Z,19.80
2022-10-30T19:26:31.617Z,19.90
2022-10-30T19:28:59.822Z,19.80
2022-10-30T19:31:28.232Z,19.90
2022-10-30T19:33:57.354Z,19.80
2022-10-30T19:36:30.413Z,19.80
2022-10-30T19:39:08.343Z,19.80
2022-10-30T19:41:37.607Z,19.70
2022-10-30T19:44:06.322Z,19.70
2022-10-30T19:46:35.069Z,19.70
2022-10-30T19:49:13.594Z,19.70
2022-10-30T19:51:44.148Z,19.70
2022-10-30T19:54:12.975Z,19.70
2022-10-30T19:56:43.143Z,19.60
2022-10-30T19:59:16.718Z,19.60
2022-10-30T20:01:47.409Z,19.50
2022-10-30T20:04:16.307Z,19.50
2022-10-30T20:06:46.322Z,19.50
2022-10-30T20:09:15.072Z,19.40
2022-10-30T20:11:43.825Z,19.40
2022-10-30T20:14:12.188Z,19.40
2022-10-30T20:16:42.601Z,19.30
2022-10-30T20:19:30.487Z,19.30
2022-10-30T20:22:00.335Z,19.30
2022-10-30T20:24:29.207Z,19.30
2022-10-30T20:26:59.024Z,19.30
2022-10-30T20:29:28.258Z,19.20
2022-10-30T20:31:56.940Z,19.20
2022-10-30T20:34:25.445Z,19.10
2022-10-30T20:36:54.210Z,19.10
2022-10-30T20:39:23.787Z,19.10
2022-10-30T20:41:52.209Z,19.10
2022-10-30T20:44:20.789Z,19.10
2022-10-30T20:46:49.847Z,19.10
2022-10-30T20:49:18.628Z,19.00
2022-10-30T20:51:47.602Z,19.00
2022-10-30T20:54:18.939Z,19.00
2022-10-30T20:56:48.740Z,18.90
2022-10-30T20:59:18.146Z,18.90
2022-10-30T21:01:47.343Z,19.00
2022-10-30T21:04:16.012Z,18.90
2022-10-30T21:06:44.225Z,18.90
2022-10-30T21:09:15.047Z,18.90
2022-10-30T21:11:48.318Z,18.90
2022-10-30T21:14:19.171Z,18.90
2022-10-30T21:16:49.215Z,18.90
2022-10-30T21:19:19.698Z,18.90
2022-10-30T21:21:48.170Z,18.90
2022-10-30T21:24:19.054Z,18.90
2022-10-30T21:26:51.361Z,18.80
2022-10-30T21:29:20.003Z,18.80
2022-10-30T21:31:51.416Z,18.80
2022-10-30T21:34:25.781Z,18.80
2022-10-30T21:36:54.289Z,18.80
2022-10-30T21:39:25.496Z,18.80
2022-10-30T21:41:55.380Z,18.80
2022-10-30T21:44:23.783Z,18.80
2022-10-30T21:46:55.246Z,18.80
2022-10-30T21:49:23.806Z,18.70
2022-10-30T21:51:52.155Z,18.70
2022-10-30T21:54:21.246Z,18.80
2022-10-30T21:56:52.678Z,18.70
2022-10-30T21:59:24.139Z,18.70
2022-10-30T22:01:54.617Z,18.60
2022-10-30T22:04:23.127Z,18.60
2022-10-30T22:06:54.715Z,18.50
2022-10-30T22:09:23.188Z,18.60
2022-10-30T22:11:54.560Z,18.50
2022-10-30T22:14:26.975Z,18.50
2022-10-30T22:16:55.263Z,18.60
2022-10-30T22:19:26.950Z,18.50
2022-10-30T22:21:55.185Z,18.60
2022-10-30T22:24:23.565Z,18.50
2022-10-30T22:26:51.749Z,18.60
2022-10-30T22:29:20.415Z,18.50
2022-10-30T22:31:50.603Z,18.50
2022-10-30T22:34:18.997Z,18.50
2022-10-30T22:36:47.795Z,18.50
2022-10-30T22:39:16.687Z,18.50
2022-10-30T22:41:45.803Z,18.50
2022-10-30T22:44:17.564Z,18.40
2022-10-30T22:46:46.320Z,18.40
2022-10-30T22:49:16.892Z,18.40
2022-10-30T22:51:45.142Z,18.40
2022-10-30T22:54:13.637Z,18.30
2022-10-30T22:56:43.083Z,18.40
2022-10-30T22:59:12.951Z,18.30
2022-10-30T23:01:42.738Z,18.30
2022-10-30T23:04:12.902Z,18.30
2022-10-30T23:06:43.419Z,18.30
2022-10-30T23:09:17.830Z,18.20
2022-10-30T23:11:46.445Z,18.20
2022-10-30T23:14:15.294Z,18.20
2022-10-30T23:16:44.020Z,18.20
2022-10-30T23:19:13.143Z,18.20
2022-10-30T23:21:42.906Z,18.20
2022-10-30T23:24:11.134Z,18.20
2022-10-30T23:26:39.625Z,18.10
2022-10-30T23:29:07.949Z,18.10
2022-10-30T23:31:38.119Z,18.20
2022-10-30T23:34:09.040Z,18.10
2022-10-30T23:36:37.590Z,18.10
2022-10-30T23:39:09.959Z,18.10
2022-10-30T23:41:38.345Z,18.10
2022-10-30T23:44:09.887Z,18.00
2022-10-30T23:46:43.180Z,18.00
2022-10-30T23:49:11.486Z,18.00
2022-10-30T23:51:40.402Z,18.00
2022-10-30T23:54:10.455Z,18.00
2022-10-30T23:56:39.432Z,18.00
2022-10-30T23:59:07.943Z,17.90
